createdAt,value
2017-12-04T00:00:58.418Z,0
2017-12-04T00:01:58.080Z,0
2017-12-04T00:02:57.268Z,0
2017-12-04T00:03:58.078Z,0
2017-12-04T00:04:58.018Z,0
2017-12-04T00:05:57.472Z,0
2017-12-04T00:06:57.457Z,0
2017-12-04T00:07:57.958Z,0
2017-12-04T00:08:57.667Z,0
2017-12-04T00:09:57.918Z,0
2017-12-04T00:10:57.363Z,0
2017-12-04T00:11:57.613Z,0
2017-12-04T00:12:57.841Z,0
2017-12-04T00:13:57.569Z,0
2017-12-04T00:14:57.817Z,0
2017-12-04T00:15:57.525Z,0
2017-12-04T00:16:57.498Z,0
2017-12-04T00:17:58.013Z,0
2017-12-04T00:18:57.461Z,0
2017-12-04T00:19:57.449Z,0
2017-12-04T00:20:57.674Z,0
2017-12-04T00:21:57.651Z,0
2017-12-04T00:22:57.640Z,0
2017-12-04T00:23:57.612Z,0
2017-12-04T00:24:57.885Z,0
2017-12-04T00:25:57.308Z,0
2017-12-04T00:26:57.285Z,0
2017-12-04T00:27:57.257Z,0
2017-12-04T00:28:57.253Z,0
2017-12-04T00:29:57.482Z,0
2017-12-04T00:30:57.456Z,0
2017-12-04T00:31:57.186Z,0
2017-12-04T00:32:57.162Z,0
2017-12-04T00:33:57.138Z,0
2017-12-04T00:34:56.844Z,0
2017-12-04T00:35:56.825Z,0
2017-12-04T00:36:57.088Z,0
2017-12-04T00:37:57.309Z,0
2017-12-04T00:38:57.292Z,0
2017-12-04T00:39:57.001Z,0
2017-12-04T00:40:56.977Z,0
2017-12-04T00:41:56.960Z,0
2017-12-04T00:42:57.201Z,0
2017-12-04T00:43:56.915Z,0
2017-12-04T00:44:56.628Z,0
2017-12-04T00:45:57.146Z,0
2017-12-04T00:46:56.849Z,0
2017-12-04T00:47:56.835Z,0
2017-12-04T00:48:56.541Z,0
2017-12-04T00:49:56.784Z,0
2017-12-04T00:50:56.764Z,0
2017-12-04T00:51:56.744Z,0
2017-12-04T00:52:56.452Z,0
2017-12-04T00:53:56.979Z,0
2017-12-04T00:54:56.679Z,0
2017-12-04T00:55:56.662Z,0
2017-12-04T00:56:56.643Z,0
2017-12-04T00:57:56.883Z,0
2017-12-04T00:58:56.596Z,0
2017-12-04T00:59:56.850Z,0
2017-12-04T01:00:56.820Z,0
2017-12-04T01:01:56.813Z,0
2017-12-04T01:02:56.516Z,0
2017-12-04T01:03:56.483Z,0
2017-12-04T01:04:56.465Z,0
2017-12-04T01:05:56.177Z,0
2017-12-04T01:06:56.430Z,0
2017-12-04T01:07:56.401Z,0
2017-12-04T01:08:56.392Z,0
2017-12-04T01:09:56.625Z,0
2017-12-04T01:10:56.601Z,0
2017-12-04T01:11:56.336Z,0
2017-12-04T01:12:56.310Z,0
2017-12-04T01:13:56.274Z,0
2017-12-04T01:14:56.527Z,0
2017-12-04T01:15:56.759Z,0
2017-12-04T01:16:55.945Z,0
2017-12-04T01:17:55.923Z,0
2017-12-04T01:18:56.702Z,0
2017-12-04T01:19:56.141Z,0
2017-12-04T01:20:56.125Z,0
2017-12-04T01:21:55.833Z,0
2017-12-04T01:22:56.347Z,0
2017-12-04T01:23:56.599Z,0
2017-12-04T01:24:56.303Z,0
2017-12-04T01:25:56.064Z,0
2017-12-04T01:26:56.260Z,0
2017-12-04T01:27:56.232Z,0
2017-12-04T01:28:56.213Z,0
2017-12-04T01:29:55.672Z,0
2017-12-04T01:30:56.450Z,0
2017-12-04T01:31:55.895Z,0
2017-12-04T01:32:56.134Z,0
2017-12-04T01:33:55.857Z,0
2017-12-04T01:34:56.096Z,0
2017-12-04T01:35:55.812Z,0
2017-12-04T01:36:55.521Z,0
2017-12-04T01:37:55.762Z,0
2017-12-04T01:38:56.011Z,0
2017-12-04T01:39:55.724Z,0
2017-12-04T01:40:56.494Z,0
2017-12-04T01:41:55.408Z,0
2017-12-04T01:42:55.919Z,0
2017-12-04T01:43:55.377Z,0
2017-12-04T01:44:55.355Z,0
2017-12-04T01:45:55.325Z,0
2017-12-04T01:46:55.839Z,0
2017-12-04T01:47:55.814Z,0
2017-12-04T01:48:55.793Z,0
2017-12-04T01:49:55.765Z,0
2017-12-04T01:50:55.222Z,0
2017-12-04T01:51:55.734Z,0
2017-12-04T01:52:55.181Z,0
2017-12-04T01:53:55.173Z,0
2017-12-04T01:54:55.138Z,0
2017-12-04T01:55:55.166Z,0
2017-12-04T01:56:55.378Z,0
2017-12-04T01:57:55.342Z,0
2017-12-04T01:58:55.386Z,0
2017-12-04T01:59:55.294Z,0
2017-12-04T02:00:55.286Z,0
2017-12-04T02:01:55.530Z,0
2017-12-04T02:02:55.242Z,0
2017-12-04T02:03:54.951Z,0
2017-12-04T02:04:55.205Z,0
2017-12-04T02:05:55.457Z,0
2017-12-04T02:06:55.156Z,0
2017-12-04T02:07:55.134Z,0
2017-12-04T02:08:54.843Z,0
2017-12-04T02:09:55.080Z,0
2017-12-04T02:10:54.799Z,0
2017-12-04T02:11:55.056Z,0
2017-12-04T02:12:55.031Z,0
2017-12-04T02:13:55.274Z,0
2017-12-04T02:14:55.245Z,0
2017-12-04T02:15:55.239Z,0
2017-12-04T02:16:54.940Z,0
2017-12-04T02:17:54.392Z,0
2017-12-04T02:18:55.161Z,0
2017-12-04T02:19:55.141Z,0
2017-12-04T02:20:55.116Z,0
2017-12-04T02:21:55.413Z,0
2017-12-04T02:22:54.550Z,0
2017-12-04T02:23:55.055Z,0
2017-12-04T02:24:55.294Z,0
2017-12-04T02:25:54.480Z,0
2017-12-04T02:26:55.273Z,0
2017-12-04T02:27:54.709Z,0
2017-12-04T02:28:55.230Z,0
2017-12-04T02:29:54.664Z,0
2017-12-04T02:30:54.383Z,0
2017-12-04T02:31:54.096Z,0
2017-12-04T02:32:55.139Z,0
2017-12-04T02:33:54.846Z,0
2017-12-04T02:34:55.098Z,0
2017-12-04T02:35:54.545Z,0
2017-12-04T02:36:54.515Z,0
2017-12-04T02:37:54.761Z,0
2017-12-04T02:38:55.012Z,0
2017-12-04T02:39:54.205Z,0
2017-12-04T02:40:54.223Z,0
2017-12-04T02:41:54.675Z,0
2017-12-04T02:42:54.407Z,0
2017-12-04T02:43:54.107Z,0
2017-12-04T02:44:54.087Z,0
2017-12-04T02:45:54.596Z,0
2017-12-04T02:46:54.310Z,0
2017-12-04T02:47:54.296Z,0
2017-12-04T02:48:54.800Z,0
2017-12-04T02:49:54.513Z,0
2017-12-04T02:50:54.224Z,0
2017-12-04T02:51:54.224Z,0
2017-12-04T02:52:54.190Z,0
2017-12-04T02:53:53.908Z,0
2017-12-04T02:54:53.887Z,0
2017-12-04T02:55:54.388Z,0
2017-12-04T02:56:53.828Z,0
2017-12-04T02:57:54.350Z,0
2017-12-04T02:58:54.580Z,0
2017-12-04T02:59:54.035Z,0
2017-12-04T03:00:53.753Z,0
2017-12-04T03:01:53.777Z,0
2017-12-04T03:02:54.240Z,0
2017-12-04T03:03:53.685Z,0
2017-12-04T03:04:53.403Z,0
2017-12-04T03:05:53.662Z,0
2017-12-04T03:06:53.627Z,0
2017-12-04T03:07:53.871Z,0
2017-12-04T03:08:53.851Z,0
2017-12-04T03:09:54.089Z,0
2017-12-04T03:10:54.123Z,0
2017-12-04T03:11:54.325Z,0
2017-12-04T03:12:54.035Z,0
2017-12-04T03:13:54.011Z,0
2017-12-04T03:14:53.730Z,0
2017-12-04T03:15:53.434Z,0
2017-12-04T03:16:53.420Z,0
2017-12-04T03:17:53.924Z,0
2017-12-04T03:18:53.638Z,0
2017-12-04T03:19:54.197Z,0
2017-12-04T03:20:54.131Z,0
2017-12-04T03:21:53.577Z,0
2017-12-04T03:22:53.566Z,0
2017-12-04T03:23:53.537Z,0
2017-12-04T03:24:53.777Z,0
2017-12-04T03:25:53.504Z,0
2017-12-04T03:26:53.783Z,0
2017-12-04T03:27:52.920Z,0
2017-12-04T03:28:53.693Z,0
2017-12-04T03:29:53.414Z,0
2017-12-04T03:30:53.404Z,0
2017-12-04T03:31:53.103Z,0
2017-12-04T03:32:53.603Z,0
2017-12-04T03:33:53.598Z,0
2017-12-04T03:34:53.345Z,0
2017-12-04T03:35:53.282Z,0
2017-12-04T03:36:53.544Z,0
2017-12-04T03:37:53.506Z,0
2017-12-04T03:38:53.222Z,0
2017-12-04T03:39:53.465Z,0
2017-12-04T03:40:53.658Z,0
2017-12-04T03:41:53.419Z,0
2017-12-04T03:42:52.884Z,0
2017-12-04T03:43:53.385Z,0
2017-12-04T03:44:53.372Z,0
2017-12-04T03:45:53.074Z,0
2017-12-04T03:46:53.593Z,0
2017-12-04T03:47:52.768Z,0
2017-12-04T03:48:53.282Z,0
2017-12-04T03:49:53.527Z,0
2017-12-04T03:50:52.971Z,0
2017-12-04T03:51:53.216Z,0
2017-12-04T03:52:52.408Z,0
2017-12-04T03:53:52.646Z,0
2017-12-04T03:54:52.896Z,0
2017-12-04T03:55:52.602Z,0
2017-12-04T03:56:53.373Z,0
2017-12-04T03:57:52.836Z,0
2017-12-04T03:58:52.273Z,0
2017-12-04T03:59:52.791Z,0
2017-12-04T04:00:52.498Z,0
2017-12-04T04:01:52.482Z,0
2017-12-04T04:02:52.722Z,0
2017-12-04T04:03:52.970Z,0
2017-12-04T04:04:52.427Z,0
2017-12-04T04:05:52.661Z,0
2017-12-04T04:06:52.639Z,0
2017-12-04T04:07:52.882Z,0
2017-12-04T04:08:52.599Z,0
2017-12-04T04:09:52.312Z,0
2017-12-04T04:10:52.818Z,0
2017-12-04T04:11:52.594Z,0
2017-12-04T04:12:52.518Z,0
2017-12-04T04:13:52.756Z,0
2017-12-04T04:14:52.746Z,0
2017-12-04T04:15:52.455Z,0
2017-12-04T04:16:52.767Z,0
2017-12-04T04:17:52.410Z,0
2017-12-04T04:18:52.657Z,0
2017-12-04T04:19:52.370Z,0
2017-12-04T04:20:52.618Z,0
2017-12-04T04:21:52.901Z,0
2017-12-04T04:22:52.852Z,0
2017-12-04T04:23:52.823Z,0
2017-12-04T04:24:52.001Z,0
2017-12-04T04:25:52.237Z,0
2017-12-04T04:26:52.242Z,0
2017-12-04T04:27:52.459Z,0
2017-12-04T04:28:51.930Z,0
2017-12-04T04:29:51.634Z,0
2017-12-04T04:30:52.406Z,0
2017-12-04T04:31:52.658Z,0
2017-12-04T04:32:52.633Z,0
2017-12-04T04:33:52.345Z,0
2017-12-04T04:34:52.062Z,0
2017-12-04T04:35:51.767Z,0
2017-12-04T04:36:52.027Z,0
2017-12-04T04:37:52.522Z,0
2017-12-04T04:38:51.761Z,0
2017-12-04T04:39:52.219Z,0
2017-12-04T04:40:51.943Z,0
2017-12-04T04:41:51.913Z,0
2017-12-04T04:42:51.887Z,0
2017-12-04T04:43:52.152Z,0
2017-12-04T04:44:51.859Z,0
2017-12-04T04:45:51.569Z,0
2017-12-04T04:46:51.552Z,0
2017-12-04T04:47:51.815Z,0
2017-12-04T04:48:51.769Z,0
2017-12-04T04:49:52.009Z,0
2017-12-04T04:50:51.991Z,0
2017-12-04T04:51:51.975Z,0
2017-12-04T04:52:52.100Z,0
2017-12-04T04:53:51.663Z,0
2017-12-04T04:54:51.644Z,0
2017-12-04T04:55:52.154Z,0
2017-12-04T04:56:51.604Z,0
2017-12-04T04:57:51.843Z,0
2017-12-04T04:58:52.091Z,0
2017-12-04T04:59:51.617Z,0
2017-12-04T05:00:51.791Z,0
2017-12-04T05:01:51.239Z,0
2017-12-04T05:02:51.750Z,0
2017-12-04T05:03:51.730Z,0
2017-12-04T05:04:51.705Z,0
2017-12-04T05:05:51.686Z,0
2017-12-04T05:06:51.131Z,0
2017-12-04T05:07:51.690Z,0
2017-12-04T05:08:51.623Z,0
2017-12-04T05:09:51.060Z,0
2017-12-04T05:10:51.584Z,0
2017-12-04T05:11:51.293Z,0
2017-12-04T05:12:51.539Z,0
2017-12-04T05:13:50.988Z,0
2017-12-04T05:14:51.227Z,0
2017-12-04T05:15:50.683Z,0
2017-12-04T05:16:50.922Z,0
2017-12-04T05:17:51.171Z,0
2017-12-04T05:18:51.147Z,0
2017-12-04T05:19:50.862Z,0
2017-12-04T05:20:51.106Z,0
2017-12-04T05:21:51.618Z,0
2017-12-04T05:22:51.064Z,0
2017-12-04T05:23:51.316Z,0
2017-12-04T05:24:51.046Z,0
2017-12-04T05:25:51.273Z,0
2017-12-04T05:26:50.728Z,0
2017-12-04T05:27:50.963Z,0
2017-12-04T05:28:51.199Z,0
2017-12-04T05:29:50.922Z,0
2017-12-04T05:30:50.374Z,0
2017-12-04T05:31:51.138Z,0
2017-12-04T05:32:50.866Z,0
2017-12-04T05:33:50.838Z,0
2017-12-04T05:34:51.346Z,0
2017-12-04T05:35:50.798Z,0
2017-12-04T05:36:50.518Z,0
2017-12-04T05:37:50.492Z,0
2017-12-04T05:38:50.731Z,0
2017-12-04T05:39:50.189Z,0
2017-12-04T05:40:51.164Z,0
2017-12-04T05:41:50.679Z,0
2017-12-04T05:42:50.918Z,0
2017-12-04T05:43:50.628Z,0
2017-12-04T05:44:50.359Z,0
2017-12-04T05:45:50.605Z,0
2017-12-04T05:46:50.853Z,0
2017-12-04T05:47:50.558Z,0
2017-12-04T05:48:51.070Z,0
2017-12-04T05:49:50.782Z,0
2017-12-04T05:50:50.747Z,0
2017-12-04T05:51:50.991Z,0
2017-12-04T05:52:50.445Z,0
2017-12-04T05:53:50.685Z,0
2017-12-04T05:54:50.422Z,0
2017-12-04T05:55:50.386Z,0
2017-12-04T05:56:50.628Z,0
2017-12-04T05:57:50.078Z,0
2017-12-04T05:58:50.342Z,0
2017-12-04T05:59:50.574Z,0
2017-12-04T06:00:50.285Z,0
2017-12-04T06:01:50.270Z,0
2017-12-04T06:02:50.248Z,0
2017-12-04T06:03:50.482Z,0
2017-12-04T06:04:50.196Z,0
2017-12-04T06:05:50.191Z,0
2017-12-04T06:06:50.160Z,0
2017-12-04T06:07:50.133Z,0
2017-12-04T06:08:49.586Z,0
2017-12-04T06:09:49.832Z,0
2017-12-04T06:10:50.344Z,0
2017-12-04T06:11:49.803Z,0
2017-12-04T06:12:50.061Z,0
2017-12-04T06:13:50.016Z,0
2017-12-04T06:14:50.262Z,0
2017-12-04T06:15:49.980Z,0
2017-12-04T06:16:50.230Z,0
2017-12-04T06:17:49.928Z,0
2017-12-04T06:18:49.923Z,0
2017-12-04T06:19:50.169Z,0
2017-12-04T06:20:50.194Z,0
2017-12-04T06:21:49.587Z,0
2017-12-04T06:22:50.116Z,0
2017-12-04T06:23:49.825Z,0
2017-12-04T06:24:49.791Z,0
2017-12-04T06:25:50.309Z,0
2017-12-04T06:26:49.756Z,0
2017-12-04T06:27:50.257Z,0
2017-12-04T06:28:49.709Z,0
2017-12-04T06:29:49.427Z,0
2017-12-04T06:30:49.678Z,0
2017-12-04T06:31:49.688Z,0
2017-12-04T06:32:49.910Z,0
2017-12-04T06:33:49.872Z,0
2017-12-04T06:34:49.860Z,0
2017-12-04T06:35:49.827Z,0
2017-12-04T06:36:49.281Z,0
2017-12-04T06:37:49.779Z,0
2017-12-04T06:38:49.778Z,0
2017-12-04T06:39:49.246Z,0
2017-12-04T06:40:49.996Z,0
2017-12-04T06:41:49.448Z,0
2017-12-04T06:42:49.419Z,0
2017-12-04T06:43:49.130Z,0
2017-12-04T06:44:49.112Z,0
2017-12-04T06:45:49.886Z,0
2017-12-04T06:46:49.343Z,0
2017-12-04T06:47:49.319Z,0
2017-12-04T06:48:49.032Z,0
2017-12-04T06:49:49.535Z,0
2017-12-04T06:50:49.777Z,0
2017-12-04T06:51:49.498Z,0
2017-12-04T06:52:49.480Z,0
2017-12-04T06:53:49.189Z,0
2017-12-04T06:54:48.690Z,0
2017-12-04T06:55:49.684Z,0
2017-12-04T06:56:48.605Z,0
2017-12-04T06:57:49.395Z,0
2017-12-04T06:58:49.413Z,0
2017-12-04T06:59:49.607Z,0
2017-12-04T07:00:48.783Z,0
2017-12-04T07:01:49.035Z,0
2017-12-04T07:02:49.006Z,0
2017-12-04T07:03:49.033Z,0
2017-12-04T07:04:48.962Z,0
2017-12-04T07:05:49.260Z,0
2017-12-04T07:06:49.190Z,0
2017-12-04T07:07:48.904Z,0
2017-12-04T07:08:48.883Z,0
2017-12-04T07:09:48.866Z,0
2017-12-04T07:10:48.840Z,0
2017-12-04T07:11:48.558Z,0
2017-12-04T07:12:48.802Z,0
2017-12-04T07:13:49.039Z,0
2017-12-04T07:14:49.024Z,0
2017-12-04T07:15:48.736Z,0
2017-12-04T07:16:48.193Z,0
2017-12-04T07:17:48.698Z,0
2017-12-04T07:18:48.422Z,0
2017-12-04T07:19:48.677Z,0
2017-12-04T07:20:48.636Z,0
2017-12-04T07:21:48.622Z,0
2017-12-04T07:22:49.124Z,0
2017-12-04T07:23:48.314Z,0
2017-12-04T07:24:48.820Z,0
2017-12-04T07:25:48.818Z,0
2017-12-04T07:26:48.521Z,0
2017-12-04T07:27:49.029Z,5
2017-12-04T07:28:48.472Z,5
2017-12-04T07:29:48.182Z,5
2017-12-04T07:30:48.699Z,5
2017-12-04T07:31:48.676Z,5
2017-12-04T07:32:48.396Z,5
2017-12-04T07:33:48.370Z,5
2017-12-04T07:34:48.089Z,5
2017-12-04T07:35:48.597Z,10
2017-12-04T07:36:48.042Z,10
2017-12-04T07:37:48.029Z,10
2017-12-04T07:38:48.267Z,10
2017-12-04T07:39:48.259Z,10
2017-12-04T07:40:48.834Z,10
2017-12-04T07:41:47.943Z,10
2017-12-04T07:42:48.199Z,10
2017-12-04T07:43:47.646Z,10
2017-12-04T07:44:48.405Z,10
2017-12-04T07:45:48.387Z,10
2017-12-04T07:46:48.380Z,10
2017-12-04T07:47:48.085Z,10
2017-12-04T07:48:48.336Z,10
2017-12-04T07:49:48.583Z,10
2017-12-04T07:50:48.406Z,10
2017-12-04T07:51:48.008Z,5
2017-12-04T07:52:48.268Z,5
2017-12-04T07:53:47.701Z,10
2017-12-04T07:54:47.689Z,10
2017-12-04T07:55:47.925Z,10
2017-12-04T07:56:48.450Z,10
2017-12-04T07:57:47.625Z,5
2017-12-04T07:58:47.877Z,5
2017-12-04T07:59:47.574Z,5
2017-12-04T08:00:48.105Z,5
2017-12-04T08:01:47.533Z,5
2017-12-04T08:02:47.786Z,5
2017-12-04T08:03:47.493Z,5
2017-12-04T08:04:48.084Z,10
2017-12-04T08:05:47.715Z,10
2017-12-04T08:06:47.429Z,10
2017-12-04T08:07:47.678Z,15
2017-12-04T08:08:47.663Z,15
2017-12-04T08:09:47.637Z,15
2017-12-04T08:10:47.620Z,20
2017-12-04T08:11:47.344Z,25
2017-12-04T08:12:47.590Z,25
2017-12-04T08:13:47.290Z,25
2017-12-04T08:14:47.565Z,35
2017-12-04T08:15:47.296Z,35
2017-12-04T08:16:47.234Z,35
2017-12-04T08:17:47.736Z,35
2017-12-04T08:18:47.187Z,40
2017-12-04T08:19:47.440Z,45
2017-12-04T08:20:47.674Z,40
2017-12-04T08:21:47.141Z,35
2017-12-04T08:22:47.132Z,35
2017-12-04T08:23:47.614Z,35
2017-12-04T08:24:47.877Z,35
2017-12-04T08:25:47.584Z,35
2017-12-04T08:26:47.556Z,35
2017-12-04T08:27:47.271Z,35
2017-12-04T08:28:47.524Z,30
2017-12-04T08:29:46.976Z,35
2017-12-04T08:30:47.477Z,35
2017-12-04T08:31:47.200Z,40
2017-12-04T08:32:47.438Z,35
2017-12-04T08:33:46.889Z,30
2017-12-04T08:34:47.414Z,25
2017-12-04T08:35:47.110Z,25
2017-12-04T08:36:46.833Z,25
2017-12-04T08:37:46.808Z,25
2017-12-04T08:38:47.321Z,25
2017-12-04T08:39:47.320Z,25
2017-12-04T08:40:47.313Z,25
2017-12-04T08:41:46.730Z,25
2017-12-04T08:42:47.500Z,30
2017-12-04T08:43:47.487Z,35
2017-12-04T08:44:46.945Z,40
2017-12-04T08:45:46.912Z,40
2017-12-04T08:46:47.162Z,40
2017-12-04T08:47:46.611Z,35
2017-12-04T08:48:47.409Z,30
2017-12-04T08:49:47.096Z,30
2017-12-04T08:50:46.550Z,30
2017-12-04T08:51:46.797Z,35
2017-12-04T08:52:47.038Z,35
2017-12-04T08:53:46.754Z,35
2017-12-04T08:54:46.998Z,40
2017-12-04T08:55:46.451Z,40
2017-12-04T08:56:47.231Z,40
2017-12-04T08:57:46.941Z,40
2017-12-04T08:58:46.933Z,40
2017-12-04T08:59:46.640Z,40
2017-12-04T09:00:46.619Z,45
2017-12-04T09:01:46.864Z,50
2017-12-04T09:02:46.837Z,55
2017-12-04T09:03:46.556Z,50
2017-12-04T09:04:49.569Z,50
2017-12-04T09:05:46.787Z,50
2017-12-04T09:06:46.224Z,45
2017-12-04T09:07:46.481Z,45
2017-12-04T09:08:46.457Z,50
2017-12-04T09:09:46.965Z,50
2017-12-04T09:10:46.149Z,50
2017-12-04T09:11:46.401Z,45
2017-12-04T09:12:46.914Z,35
2017-12-04T09:13:46.884Z,30
2017-12-04T09:14:46.615Z,25
2017-12-04T09:15:45.784Z,25
2017-12-04T09:16:46.033Z,20
2017-12-04T09:17:46.812Z,20
2017-12-04T09:18:46.261Z,15
2017-12-04T09:19:46.234Z,15
2017-12-04T09:20:46.226Z,20
2017-12-04T09:21:46.466Z,30
2017-12-04T09:22:45.926Z,30
2017-12-04T09:23:46.419Z,25
2017-12-04T09:24:46.136Z,35
2017-12-04T09:25:46.378Z,45
2017-12-04T09:26:46.364Z,65
2017-12-04T09:27:46.088Z,90
2017-12-04T09:28:46.321Z,105
2017-12-04T09:29:46.309Z,125
2017-12-04T09:30:46.283Z,130
2017-12-04T09:31:45.469Z,145
2017-12-04T09:32:45.979Z,185
2017-12-04T09:33:46.227Z,205
2017-12-04T09:34:46.479Z,245
2017-12-04T09:35:45.663Z,245
2017-12-04T09:36:46.218Z,170
2017-12-04T09:37:45.889Z,115
2017-12-04T09:38:45.872Z,90
2017-12-04T09:39:45.591Z,90
2017-12-04T09:40:46.293Z,85
2017-12-04T09:41:46.332Z,65
2017-12-04T09:42:45.843Z,60
2017-12-04T09:43:46.065Z,60
2017-12-04T09:44:46.024Z,55
2017-12-04T09:45:46.010Z,50
2017-12-04T09:46:45.468Z,50
2017-12-04T09:47:45.700Z,45
2017-12-04T09:48:45.675Z,40
2017-12-04T09:49:45.660Z,40
2017-12-04T09:50:45.383Z,40
2017-12-04T09:51:45.635Z,35
2017-12-04T09:52:45.622Z,35
2017-12-04T09:53:45.585Z,35
2017-12-04T09:54:45.849Z,35
2017-12-04T09:55:45.811Z,40
2017-12-04T09:56:45.582Z,35
2017-12-04T09:57:45.505Z,30
2017-12-04T09:58:44.963Z,25
2017-12-04T09:59:45.746Z,25
2017-12-04T10:00:45.735Z,30
2017-12-04T10:01:45.706Z,25
2017-12-04T10:02:45.698Z,25
2017-12-04T10:03:45.678Z,30
2017-12-04T10:04:45.384Z,20
2017-12-04T10:05:45.887Z,20
2017-12-04T10:06:45.616Z,25
2017-12-04T10:07:45.579Z,30
2017-12-04T10:08:45.036Z,30
2017-12-04T10:09:45.020Z,40
2017-12-04T10:10:45.549Z,55
2017-12-04T10:11:45.519Z,55
2017-12-04T10:12:44.957Z,40
2017-12-04T10:13:45.738Z,40
2017-12-04T10:14:44.919Z,40
2017-12-04T10:15:45.176Z,30
2017-12-04T10:16:45.150Z,35
2017-12-04T10:17:44.870Z,25
2017-12-04T10:18:45.110Z,20
2017-12-04T10:19:45.095Z,25
2017-12-04T10:20:45.077Z,25
2017-12-04T10:21:45.591Z,20
2017-12-04T10:22:45.027Z,30
2017-12-04T10:23:45.016Z,50
2017-12-04T10:24:44.997Z,45
2017-12-04T10:25:45.500Z,45
2017-12-04T10:26:44.956Z,30
2017-12-04T10:27:44.934Z,20
2017-12-04T10:28:45.460Z,20
2017-12-04T10:29:44.922Z,15
2017-12-04T10:30:44.874Z,15
2017-12-04T10:31:44.895Z,15
2017-12-04T10:32:45.114Z,15
2017-12-04T10:33:45.082Z,20
2017-12-04T10:34:44.806Z,20
2017-12-04T10:35:44.807Z,20
2017-12-04T10:36:45.039Z,25
2017-12-04T10:37:45.045Z,40
2017-12-04T10:38:45.262Z,55
2017-12-04T10:39:44.710Z,80
2017-12-04T10:40:44.434Z,100
2017-12-04T10:41:44.934Z,60
2017-12-04T10:42:44.378Z,50
2017-12-04T10:43:44.375Z,65
2017-12-04T10:44:44.603Z,60
2017-12-04T10:45:44.592Z,60
2017-12-04T10:46:44.842Z,60
2017-12-04T10:47:44.822Z,60
2017-12-04T10:48:44.872Z,60
2017-12-04T10:49:44.781Z,50
2017-12-04T10:50:44.500Z,40
2017-12-04T10:51:44.218Z,30
2017-12-04T10:52:44.730Z,30
2017-12-04T10:53:44.713Z,35
2017-12-04T10:54:44.699Z,30
2017-12-04T10:55:44.669Z,40
2017-12-04T10:56:44.960Z,55
2017-12-04T10:57:44.633Z,50
2017-12-04T10:58:44.617Z,65
2017-12-04T10:59:44.056Z,60
2017-12-04T11:00:44.862Z,65
2017-12-04T11:01:44.549Z,65
2017-12-04T11:02:44.538Z,70
2017-12-04T11:03:44.003Z,65
2017-12-04T11:04:43.967Z,65
2017-12-04T11:05:43.943Z,70
2017-12-04T11:06:44.728Z,85
2017-12-04T11:07:44.181Z,75
2017-12-04T11:08:43.904Z,70
2017-12-04T11:09:44.137Z,60
2017-12-04T11:10:44.119Z,55
2017-12-04T11:11:43.826Z,50
2017-12-04T11:12:44.611Z,45
2017-12-04T11:13:44.078Z,35
2017-12-04T11:14:43.505Z,40
2017-12-04T11:15:44.279Z,45
2017-12-04T11:16:43.737Z,45
2017-12-04T11:17:43.720Z,50
2017-12-04T11:18:44.274Z,55
2017-12-04T11:19:44.200Z,65
2017-12-04T11:20:43.921Z,60
2017-12-04T11:21:44.187Z,60
2017-12-04T11:22:44.163Z,60
2017-12-04T11:23:44.190Z,65
2017-12-04T11:24:43.872Z,70
2017-12-04T11:25:43.567Z,75
2017-12-04T11:26:43.816Z,75
2017-12-04T11:27:43.796Z,80
2017-12-04T11:28:43.519Z,70
2017-12-04T11:29:43.752Z,70
2017-12-04T11:30:44.009Z,70
2017-12-04T11:31:44.015Z,60
2017-12-04T11:32:43.708Z,70
2017-12-04T11:33:43.749Z,75
2017-12-04T11:34:43.407Z,75
2017-12-04T11:35:43.382Z,70
2017-12-04T11:36:43.661Z,70
2017-12-04T11:37:43.872Z,60
2017-12-04T11:38:43.586Z,50
2017-12-04T11:39:43.841Z,50
2017-12-04T11:40:43.287Z,50
2017-12-04T11:41:43.737Z,50
2017-12-04T11:42:43.774Z,60
2017-12-04T11:43:44.021Z,65
2017-12-04T11:44:43.778Z,60
2017-12-04T11:45:43.715Z,70
2017-12-04T11:46:42.924Z,80
2017-12-04T11:47:43.411Z,80
2017-12-04T11:48:43.399Z,85
2017-12-04T11:49:43.373Z,100
2017-12-04T11:50:43.634Z,100
2017-12-04T11:51:43.346Z,100
2017-12-04T11:52:43.580Z,100
2017-12-04T11:53:43.562Z,100
2017-12-04T11:54:43.567Z,130
2017-12-04T11:55:42.998Z,120
2017-12-04T11:56:43.512Z,145
2017-12-04T11:57:43.224Z,150
2017-12-04T11:58:43.212Z,165
2017-12-04T11:59:42.967Z,110
2017-12-04T12:00:43.448Z,105
2017-12-04T12:01:43.440Z,120
2017-12-04T12:02:43.140Z,125
2017-12-04T12:03:43.376Z,120
2017-12-04T12:04:43.133Z,165
2017-12-04T12:05:43.086Z,175
2017-12-04T12:06:43.372Z,150
2017-12-04T12:07:42.785Z,125
2017-12-04T12:08:43.313Z,135
2017-12-04T12:09:43.005Z,130
2017-12-04T12:10:42.732Z,125
2017-12-04T12:11:43.230Z,130
2017-12-04T12:12:42.427Z,120
2017-12-04T12:13:42.937Z,120
2017-12-04T12:14:43.490Z,165
2017-12-04T12:15:43.166Z,170
2017-12-04T12:16:42.617Z,155
2017-12-04T12:17:42.873Z,185
2017-12-04T12:18:43.107Z,105
2017-12-04T12:19:43.361Z,85
2017-12-04T12:20:42.858Z,90
2017-12-04T12:21:43.054Z,120
2017-12-04T12:22:42.778Z,135
2017-12-04T12:23:43.024Z,180
2017-12-04T12:24:42.743Z,130
2017-12-04T12:25:42.458Z,125
2017-12-04T12:26:42.707Z,125
2017-12-04T12:27:42.957Z,120
2017-12-04T12:28:43.194Z,115
2017-12-04T12:29:42.656Z,85
2017-12-04T12:30:42.373Z,85
2017-12-04T12:31:43.138Z,100
2017-12-04T12:32:42.600Z,105
2017-12-04T12:33:42.587Z,95
2017-12-04T12:34:42.828Z,135
2017-12-04T12:35:42.542Z,170
2017-12-04T12:36:42.530Z,165
2017-12-04T12:37:42.506Z,135
2017-12-04T12:38:42.755Z,120
2017-12-04T12:39:42.745Z,100
2017-12-04T12:40:42.190Z,100
2017-12-04T12:41:42.964Z,120
2017-12-04T12:42:42.687Z,140
2017-12-04T12:43:42.133Z,140
2017-12-04T12:44:42.402Z,135
2017-12-04T12:45:42.435Z,145
2017-12-04T12:46:42.351Z,150
2017-12-04T12:47:42.592Z,130
2017-12-04T12:48:42.316Z,105
2017-12-04T12:49:42.027Z,100
2017-12-04T12:50:42.548Z,95
2017-12-04T12:51:42.789Z,100
2017-12-04T12:52:42.500Z,100
2017-12-04T12:53:41.955Z,95
2017-12-04T12:54:42.212Z,80
2017-12-04T12:55:42.454Z,70
2017-12-04T12:56:42.174Z,65
2017-12-04T12:57:42.158Z,55
2017-12-04T12:58:42.401Z,55
2017-12-04T12:59:42.387Z,60
2017-12-04T13:00:42.101Z,80
2017-12-04T13:01:42.356Z,110
2017-12-04T13:02:42.333Z,155
2017-12-04T13:03:42.051Z,175
2017-12-04T13:04:42.626Z,150
2017-12-04T13:05:42.010Z,120
2017-12-04T13:06:42.272Z,95
2017-12-04T13:07:42.244Z,90
2017-12-04T13:08:41.961Z,85
2017-12-04T13:09:41.677Z,65
2017-12-04T13:10:42.185Z,60
2017-12-04T13:11:41.897Z,70
2017-12-04T13:12:41.883Z,65
2017-12-04T13:13:41.614Z,65
2017-12-04T13:14:42.119Z,80
2017-12-04T13:15:41.570Z,105
2017-12-04T13:16:41.877Z,115
2017-12-04T13:17:42.060Z,105
2017-12-04T13:18:41.779Z,100
2017-12-04T13:19:41.763Z,115
2017-12-04T13:20:42.287Z,130
2017-12-04T13:21:41.994Z,150
2017-12-04T13:22:41.709Z,185
2017-12-04T13:23:41.692Z,200
2017-12-04T13:24:41.936Z,225
2017-12-04T13:25:41.919Z,115
2017-12-04T13:26:41.634Z,110
2017-12-04T13:27:41.358Z,110
2017-12-04T13:28:41.866Z,100
2017-12-04T13:29:41.849Z,70
2017-12-04T13:30:41.578Z,60
2017-12-04T13:31:42.086Z,45
2017-12-04T13:32:41.535Z,40
2017-12-04T13:33:41.529Z,35
2017-12-04T13:34:41.504Z,45
2017-12-04T13:35:41.753Z,40
2017-12-04T13:36:41.748Z,35
2017-12-04T13:37:41.731Z,35
2017-12-04T13:38:41.986Z,35
2017-12-04T13:39:41.170Z,40
2017-12-04T13:40:41.398Z,40
2017-12-04T13:41:41.582Z,40
2017-12-04T13:42:41.405Z,45
2017-12-04T13:43:41.666Z,55
2017-12-04T13:44:41.062Z,60
2017-12-04T13:45:41.053Z,65
2017-12-04T13:46:41.045Z,70
2017-12-04T13:47:41.536Z,70
2017-12-04T13:48:40.724Z,70
2017-12-04T13:49:41.543Z,70
2017-12-04T13:50:41.271Z,65
2017-12-04T13:51:40.956Z,70
2017-12-04T13:52:41.173Z,75
2017-12-04T13:53:41.421Z,80
2017-12-04T13:54:40.882Z,80
2017-12-04T13:55:41.174Z,80
2017-12-04T13:56:40.573Z,75
2017-12-04T13:57:40.840Z,75
2017-12-04T13:58:41.084Z,80
2017-12-04T13:59:41.315Z,65
2017-12-04T14:00:40.767Z,60
2017-12-04T14:01:41.289Z,60
2017-12-04T14:02:40.459Z,50
2017-12-04T14:03:41.078Z,45
2017-12-04T14:04:41.018Z,45
2017-12-04T14:05:40.934Z,30
2017-12-04T14:06:40.921Z,25
2017-12-04T14:07:40.374Z,20
2017-12-04T14:08:41.147Z,20
2017-12-04T14:09:41.169Z,20
2017-12-04T14:10:40.608Z,25
2017-12-04T14:11:40.590Z,25
2017-12-04T14:12:41.130Z,30
2017-12-04T14:13:41.072Z,30
2017-12-04T14:14:41.036Z,25
2017-12-04T14:15:40.792Z,20
2017-12-04T14:16:41.014Z,25
2017-12-04T14:17:40.990Z,25
2017-12-04T14:18:41.315Z,35
2017-12-04T14:19:40.747Z,35
2017-12-04T14:20:40.952Z,35
2017-12-04T14:21:40.967Z,20
2017-12-04T14:22:40.667Z,20
2017-12-04T14:23:40.638Z,20
2017-12-04T14:24:40.649Z,20
2017-12-04T14:25:40.319Z,30
2017-12-04T14:26:40.313Z,30
2017-12-04T14:27:41.075Z,30
2017-12-04T14:28:40.516Z,30
2017-12-04T14:29:40.520Z,30